Time;durP1;ratioP1;P1;durP2;ratioP2;P2;SDS_P1;SDS_P2;PMS_P1;PMS_P2;Temp;Humidity;BMP_temperature;BMP_pressure;BME280_temperature;BME280_humidity;BME280_pressure;Samples;Min_cycle;Max_cycle;Signal;HPM_P1;HPM_P2
2024/01/27 00:00:30;;;;;;;9.70;7.57;;;;;;;11.88;63.43;96403.59;6222153;22;20044;-87
2024/01/27 00:02:58;;;;;;;7.70;6.90;;;;;;;11.92;63.29;96412.78;6167773;23;20004;-87
2024/01/27 00:05:23;;;;;;;11.13;8.70;;;;;;;12.02;62.62;96412.66;6193492;23;20015;-86
2024/01/27 00:07:49;;;;;;;11.43;9.20;;;;;;;11.91;63.03;96421.56;6217666;23;20008;-87
2024/01/27 00:10:15;;;;;;;12.20;9.50;;;;;;;11.81;63.83;96437.31;6192364;23;20016;-86
2024/01/27 00:12:40;;;;;;;10.77;8.70;;;;;;;11.74;63.75;96426.66;6192688;23;20064;-87
2024/01/27 00:15:07;;;;;;;12.10;9.32;;;;;;;11.87;63.07;96434.06;6192224;23;20035;-87
2024/01/27 00:17:35;;;;;;;12.35;9.30;;;;;;;11.58;64.40;96431.81;6192503;23;20032;-86
2024/01/27 00:20:00;;;;;;;13.40;9.27;;;;;;;11.61;64.12;96431.47;6192888;23;20004;-87
2024/01/27 00:22:26;;;;;;;6.63;5.82;;;;;;;11.70;62.89;96440.97;6192535;23;20019;-87
2024/01/27 00:24:51;;;;;;;7.18;6.18;;;;;;;11.49;62.39;96427.50;6217550;23;20016;-87
2024/01/27 00:27:17;;;;;;;4.05;3.60;;;;;;;10.95;61.78;96425.00;6192338;23;20014;-87
2024/01/27 00:29:42;;;;;;;4.47;3.25;;;;;;;11.09;60.56;96428.84;6216207;23;20075;-87
2024/01/27 00:34:33;;;;;;;4.75;4.13;;;;;;;10.09;62.66;96446.19;6196022;22;20087;-87
2024/01/27 00:36:58;;;;;;;4.65;4.15;;;;;;;10.05;62.54;96447.44;6162116;23;20104;-86
2024/01/27 00:39:26;;;;;;;4.88;3.97;;;;;;;10.61;61.15;96467.28;6163076;23;20039;-87
2024/01/27 00:41:52;;;;;;;4.80;4.30;;;;;;;10.30;61.82;96449.41;6162624;23;20016;-88
2024/01/27 00:44:18;;;;;;;3.97;3.60;;;;;;;10.45;60.82;96460.16;6163161;23;20008;-86
2024/01/27 00:49:20;;;;;;;4.43;4.00;;;;;;;9.95;62.39;96457.88;6188566;23;20021;-86
2024/01/27 00:51:45;;;;;;;6.68;4.88;;;;;;;9.37;64.66;96469.25;6137551;23;20019;-86
2024/01/27 00:54:11;;;;;;;11.57;8.15;;;;;;;9.44;66.69;96465.13;6186324;23;20091;-86
2024/01/27 00:56:36;;;;;;;8.30;6.50;;;;;;;9.94;63.88;96458.84;6186965;23;20012;-86
2024/01/27 00:59:01;;;;;;;7.75;6.00;;;;;;;9.70;63.83;96459.34;6162239;23;20020;-86
2024/01/27 01:01:27;;;;;;;5.00;3.20;;;;;;;10.01;61.03;96472.91;6186816;23;20016;-86
2024/01/27 01:06:18;;;;;;;4.78;2.53;;;;;;;9.74;61.24;96473.69;6205943;22;20035;-87
2024/01/27 01:08:45;;;;;;;3.00;1.83;;;;;;;9.58;59.71;96472.50;6161663;23;20056;-86
2024/01/27 01:11:11;;;;;;;3.53;2.15;;;;;;;9.26;60.76;96477.19;6162332;23;20087;-86
2024/01/27 01:13:36;;;;;;;3.88;1.95;;;;;;;9.09;61.07;96486.50;6161835;23;20024;-86
2024/01/27 01:16:03;;;;;;;2.33;1.50;;;;;;;9.11;60.61;96489.78;6162092;23;20004;-86
2024/01/27 01:18:28;;;;;;;4.07;2.40;;;;;;;9.20;61.45;96481.97;6162524;23;20093;-86
2024/01/27 01:20:54;;;;;;;4.03;1.70;;;;;;;9.28;59.79;96490.84;6161851;23;20036;-87
2024/01/27 01:23:19;;;;;;;3.22;1.50;;;;;;;8.91;59.71;96487.19;6186565;23;20038;-86
2024/01/27 01:25:45;;;;;;;4.47;1.60;;;;;;;9.11;60.19;96482.78;6186786;23;20055;-86
2024/01/27 01:28:10;;;;;;;2.80;1.70;;;;;;;8.81;60.94;96481.13;6137580;23;20009;-85
2024/01/27 01:30:36;;;;;;;5.07;1.80;;;;;;;9.03;59.58;96498.25;6162000;23;20013;-87
2024/01/27 01:35:27;;;;;;;3.67;1.67;;;;;;;8.65;59.27;96504.22;6225833;22;20028;-85
2024/01/27 01:37:52;;;;;;;4.70;1.65;;;;;;;8.33;59.92;96494.81;6191017;23;20237;-86
2024/01/27 01:40:17;;;;;;;2.95;1.60;;;;;;;8.64;59.77;96507.75;6216645;23;20033;-86
2024/01/27 01:42:43;;;;;;;4.03;1.90;;;;;;;8.89;60.50;96502.06;6216322;23;20076;-86
2024/01/27 01:45:12;;;;;;;5.45;1.70;;;;;;;8.89;60.14;96499.47;6216527;23;20012;-87
2024/01/27 01:52:49;;;;;;;5.45;1.70;;;;;;;9.10;59.64;96504.53;6242791;22;20027;-86
2024/01/27 01:55:16;;;;;;;3.25;1.80;;;;;;;9.27;59.08;96504.78;6216897;23;20087;-87
2024/01/27 01:57:43;;;;;;;3.47;1.80;;;;;;;9.28;58.69;96496.88;6192363;23;20012;-87
2024/01/27 02:00:10;;;;;;;4.78;1.85;;;;;;;9.24;58.00;96508.47;6216413;23;20039;-87
2024/01/27 02:02:35;;;;;;;4.07;2.08;;;;;;;9.45;58.52;96513.53;6215996;23;20106;-86
2024/01/27 02:05:04;;;;;;;3.58;1.75;;;;;;;9.49;58.73;96511.47;6191547;23;20012;-86
2024/01/27 02:07:29;;;;;;;4.32;1.83;;;;;;;9.10;59.44;96506.28;6192608;23;19996;-87
2024/01/27 02:12:30;;;;;;;4.47;1.98;;;;;;;9.41;59.92;96511.34;6238521;22;20024;-87
2024/01/27 02:14:55;;;;;;;3.78;1.80;;;;;;;9.43;59.24;96504.25;6191117;23;20008;-86
2024/01/27 02:17:21;;;;;;;4.28;1.90;;;;;;;9.26;59.97;96524.75;6191698;23;20042;-86
2024/01/27 02:19:46;;;;;;;4.43;1.83;;;;;;;9.77;58.94;96522.78;6216345;23;20023;-88
2024/01/27 02:22:12;;;;;;;3.63;1.77;;;;;;;9.38;59.74;96517.63;6215759;23;20004;-86
2024/01/27 02:24:37;;;;;;;3.25;1.80;;;;;;;8.66;61.47;96517.03;6191520;23;20008;-87
2024/01/27 02:27:03;;;;;;;5.53;1.90;;;;;;;8.47;62.51;96512.59;6216302;23;20110;-86
2024/01/27 02:34:32;;;;;;;5.32;2.10;;;;;;;8.76;60.58;96511.88;6241649;22;20020;-86
2024/01/27 02:36:58;;;;;;;4.63;1.90;;;;;;;9.35;59.55;96513.53;6190790;23;20011;-85
2024/01/27 02:39:23;;;;;;;5.53;1.60;;;;;;;8.93;59.55;96513.81;6241672;23;20012;-86
2024/01/27 02:44:15;;;;;;;6.30;1.77;;;;;;;9.08;59.86;96527.22;6240775;22;20020;-87
2024/01/27 02:46:44;;;;;;;6.32;1.90;;;;;;;9.23;59.37;96524.19;6216618;23;20097;-86
2024/01/27 02:49:09;;;;;;;3.65;1.90;;;;;;;9.47;59.23;96541.97;6191441;23;20058;-86
2024/01/27 02:51:35;;;;;;;4.65;1.70;;;;;;;9.72;57.41;96530.97;6191350;23;20015;-87
2024/01/27 02:54:00;;;;;;;5.40;1.98;;;;;;;9.54;57.52;96528.28;6191737;23;20008;-86
2024/01/27 02:56:26;;;;;;;3.47;1.60;;;;;;;9.64;57.27;96528.25;6191984;23;20000;-86
2024/01/27 02:58:51;;;;;;;4.53;1.90;;;;;;;9.65;57.26;96537.69;6216369;23;20012;-86
2024/01/27 03:01:17;;;;;;;3.60;1.90;;;;;;;9.33;58.43;96531.03;6185505;23;20021;-86
2024/01/27 03:03:42;;;;;;;4.38;1.75;;;;;;;9.63;58.01;96523.19;6186328;23;20023;-86
2024/01/27 03:06:10;;;;;;;4.05;1.63;;;;;;;9.85;57.78;96528.09;6137233;23;20020;-86
2024/01/27 03:08:36;;;;;;;7.88;1.80;;;;;;;9.87;57.69;96517.56;6211615;23;20032;-86
2024/01/27 03:11:01;;;;;;;5.68;1.95;;;;;;;9.65;58.98;96521.28;6161619;23;20009;-87
2024/01/27 03:13:27;;;;;;;5.00;1.75;;;;;;;9.77;57.98;96513.19;6161875;23;20007;-86
2024/01/27 03:26:13;;;;;;;6.25;1.77;;;;;;;9.19;59.21;96519.28;6183553;23;20032;-86
2024/01/27 03:28:38;;;;;;;3.65;1.80;;;;;;;9.37;58.35;96522.00;6183318;23;20005;-86
2024/01/27 03:31:04;;;;;;;4.25;1.65;;;;;;;9.52;57.69;96529.34;6158188;23;20041;-86
2024/01/27 03:33:32;;;;;;;2.10;1.60;;;;;;;9.65;57.94;96519.50;6182745;23;20012;-86
2024/01/27 03:38:35;;;;;;;3.83;1.90;;;;;;;9.68;58.41;96523.63;6243037;22;20024;-86
2024/01/27 03:41:01;;;;;;;4.80;2.15;;;;;;;9.63;58.28;96529.22;6169119;23;20020;-86
2024/01/27 03:43:26;;;;;;;5.45;2.00;;;;;;;9.74;58.25;96528.25;6167847;23;20031;-86
2024/01/27 03:45:52;;;;;;;4.78;2.10;;;;;;;9.45;59.15;96526.50;6217078;23;20083;-86
2024/01/27 03:55:53;;;;;;;5.57;2.08;;;;;;;9.67;58.69;96542.75;6239524;22;20016;-86
2024/01/27 03:58:19;;;;;;;3.15;1.90;;;;;;;9.58;57.83;96549.59;6192712;23;20022;-87
2024/01/27 04:00:45;;;;;;;3.72;1.90;;;;;;;9.62;58.24;96556.16;6192650;23;20014;-86
2024/01/27 04:03:10;;;;;;;5.35;2.10;;;;;;;9.78;57.54;96556.38;6217525;23;20020;-86
2024/01/27 04:08:11;;;;;;;3.30;1.80;;;;;;;9.43;57.39;96563.97;6241221;22;20016;-87
2024/01/27 04:10:37;;;;;;;4.95;2.10;;;;;;;9.32;58.22;96575.31;6211003;23;20025;-86
2024/01/27 04:13:02;;;;;;;7.38;3.65;;;;;;;9.28;60.12;96579.94;6187297;23;20004;-86
2024/01/27 04:15:38;;;;;;;4.60;2.40;;;;;;;8.98;59.52;96573.88;6187400;23;20061;-86
2024/01/27 04:20:30;;;;;;;5.05;2.38;;;;;;;9.16;58.80;96565.47;6225492;23;20056;-87
2024/01/27 04:22:56;;;;;;;4.13;2.58;;;;;;;8.77;60.57;96583.53;6192436;23;20071;-87
2024/01/27 04:25:21;;;;;;;6.20;2.70;;;;;;;9.31;58.67;96581.44;6192075;23;20095;-86
2024/01/27 04:27:47;;;;;;;5.45;2.25;;;;;;;8.75;58.49;96564.69;6217728;23;20012;-87
2024/01/27 04:32:38;;;;;;;6.50;2.88;;;;;;;8.86;60.12;96566.38;6194775;23;20020;-87
2024/01/27 04:35:04;;;;;;;5.25;2.88;;;;;;;9.16;60.06;96575.84;6240357;23;20087;-87
2024/01/27 04:37:30;;;;;;;6.05;3.10;;;;;;;9.17;60.29;96569.69;6191749;23;20031;-87
2024/01/27 04:39:55;;;;;;;4.38;3.10;;;;;;;9.14;59.50;96572.56;6192063;23;20011;-86
2024/01/27 04:44:46;;;;;;;7.35;3.17;;;;;;;9.06;60.27;96595.75;6242692;22;20176;-87
2024/01/27 04:47:12;;;;;;;5.53;3.00;;;;;;;9.10;59.39;96581.56;6192227;23;20062;-87
2024/01/27 04:49:37;;;;;;;5.88;2.95;;;;;;;9.11;59.37;96584.03;6192466;23;20000;-88
2024/01/27 04:52:03;;;;;;;6.43;3.10;;;;;;;9.05;60.04;96579.38;6217183;23;20004;-86
2024/01/27 04:54:28;;;;;;;5.18;3.63;;;;;;;9.03;60.35;96581.28;6216949;23;20000;-87
2024/01/27 04:56:54;;;;;;;5.95;3.35;;;;;;;8.96;60.34;96586.19;6217121;23;20007;-87
2024/01/27 04:59:19;;;;;;;5.15;3.40;;;;;;;9.12;60.20;96587.44;6192143;23;20011;-87
2024/01/27 05:01:45;;;;;;;4.88;3.70;;;;;;;9.26;59.96;96597.44;6216971;23;20012;-87
2024/01/27 05:04:11;;;;;;;7.60;4.47;;;;;;;9.19;60.29;96588.53;6217295;23;20012;-87
2024/01/27 05:06:38;;;;;;;7.47;4.65;;;;;;;9.34;60.62;96594.16;6216370;23;20004;-87
2024/01/27 05:11:39;;;;;;;7.57;4.60;;;;;;;9.01;61.90;96578.00;6212918;23;20024;-87
2024/01/27 05:14:05;;;;;;;7.00;4.50;;;;;;;8.81;62.78;96579.72;6186352;23;20015;-86
2024/01/27 05:16:31;;;;;;;6.43;4.68;;;;;;;8.64;63.49;96583.78;6186548;23;20112;-86
2024/01/27 05:18:57;;;;;;;7.28;4.20;;;;;;;8.77;62.63;96575.75;6187413;23;20015;-87
2024/01/27 05:21:22;;;;;;;7.80;4.88;;;;;;;8.69;63.23;96584.22;6212148;23;20079;-87
2024/01/27 05:23:49;;;;;;;7.88;4.50;;;;;;;8.75;63.28;96591.44;6162051;23;20083;-86
2024/01/27 05:28:40;;;;;;;7.40;4.82;;;;;;;8.75;63.58;96594.03;6199419;23;20028;-86
2024/01/27 05:31:11;;;;;;;8.15;4.70;;;;;;;8.49;63.81;96590.28;6186864;23;20051;-88
2024/01/27 05:33:38;;;;;;;7.75;5.60;;;;;;;8.33;64.65;96585.53;6212190;23;20001;-87
2024/01/27 05:36:06;;;;;;;7.20;5.05;;;;;;;8.73;63.14;96601.16;6187098;23;20047;-87
2024/01/27 05:38:32;;;;;;;6.82;4.90;;;;;;;8.28;64.72;96600.66;6187397;23;20017;-87
2024/01/27 05:41:00;;;;;;;9.07;5.25;;;;;;;8.17;65.19;96591.22;6162027;23;20032;-86
2024/01/27 05:43:26;;;;;;;5.15;4.53;;;;;;;8.45;64.48;96591.50;6211968;23;20012;-87
2024/01/27 05:45:51;;;;;;;7.10;5.10;;;;;;;8.71;63.44;96597.03;6157497;23;20009;-86
2024/01/27 05:48:17;;;;;;;8.23;5.68;;;;;;;8.40;64.02;96584.09;6137635;23;20011;-86
2024/01/27 05:50:43;;;;;;;7.63;5.25;;;;;;;8.28;64.02;96590.28;6137511;23;20012;-86
2024/01/27 05:53:11;;;;;;;7.55;4.75;;;;;;;8.35;63.50;96586.22;6187165;23;20019;-86
2024/01/27 05:55:37;;;;;;;5.88;4.78;;;;;;;8.61;62.64;96597.03;6163124;23;20016;-86
2024/01/27 06:03:03;;;;;;;9.43;4.30;;;;;;;8.65;60.84;96592.41;6215999;22;20024;-86
2024/01/27 06:05:28;;;;;;;6.50;4.07;;;;;;;8.46;61.01;96593.16;6166443;23;20020;-86
2024/01/27 06:07:57;;;;;;;6.20;4.20;;;;;;;8.55;61.35;96598.38;6216748;23;20083;-86
2024/01/27 06:10:24;;;;;;;7.20;3.42;;;;;;;8.49;60.70;96587.69;6191613;23;20087;-86
2024/01/27 06:12:51;;;;;;;4.60;2.80;;;;;;;8.44;60.60;96595.06;6192958;23;20019;-86
2024/01/27 06:17:44;;;;;;;5.30;2.95;;;;;;;8.57;59.38;96598.25;6170298;23;20031;-86
2024/01/27 06:20:10;;;;;;;4.45;2.55;;;;;;;8.60;59.15;96609.19;6186576;23;20017;-86
2024/01/27 06:22:35;;;;;;;4.22;2.70;;;;;;;8.46;59.94;96609.50;6186167;23;20015;-86
2024/01/27 06:25:01;;;;;;;5.57;3.00;;;;;;;8.55;59.51;96603.56;6161502;23;20058;-86
2024/01/27 06:32:27;;;;;;;6.07;3.15;;;;;;;8.39;59.36;96592.78;6240712;22;20019;-86
2024/01/27 06:34:52;;;;;;;6.68;3.47;;;;;;;8.39;59.71;96600.56;6216328;23;20015;-86
2024/01/27 06:37:19;;;;;;;6.53;3.22;;;;;;;8.44;59.52;96590.69;6191689;23;20018;-86
2024/01/27 06:39:44;;;;;;;6.95;3.45;;;;;;;8.37;59.83;96611.06;6217035;23;20076;-86
2024/01/27 06:42:10;;;;;;;8.02;4.07;;;;;;;7.99;61.16;96611.69;6191422;23;20019;-87
2024/01/27 06:44:38;;;;;;;7.30;4.25;;;;;;;7.92;61.22;96600.19;6166764;23;20000;-87
2024/01/27 06:47:04;;;;;;;6.95;4.18;;;;;;;7.92;61.46;96600.19;6191635;23;20046;-87
2024/01/27 06:49:29;;;;;;;6.40;4.53;;;;;;;7.98;60.98;96610.06;6216982;23;20008;-86
2024/01/27 06:56:55;;;;;;;8.60;4.55;;;;;;;8.20;60.03;96599.53;6235653;22;20050;-87
2024/01/27 06:59:21;;;;;;;6.45;4.57;;;;;;;7.92;61.23;96600.19;6218773;23;20020;-86
2024/01/27 07:01:48;;;;;;;6.25;4.55;;;;;;;8.11;60.35;96602.06;6193319;23;20086;-87
2024/01/27 07:04:17;;;;;;;7.72;5.10;;;;;;;7.90;60.77;96602.91;6218520;23;20008;-87
2024/01/27 07:06:43;;;;;;;8.35;5.00;;;;;;;8.06;60.29;96602.47;6218019;23;20008;-87
2024/01/27 07:09:11;;;;;;;7.55;4.78;;;;;;;7.94;60.26;96609.50;6218641;23;20031;-87
2024/01/27 07:14:03;;;;;;;8.48;4.65;;;;;;;7.39;61.51;96609.63;6241786;22;20059;-87
2024/01/27 07:16:32;;;;;;;6.70;4.60;;;;;;;7.86;60.59;96605.88;6218502;23;20008;-87
2024/01/27 07:31:44;;;;;;;7.65;5.05;;;;;;;7.90;61.19;96591.72;6243904;22;20020;-87
2024/01/27 07:34:14;;;;;;;8.35;4.85;;;;;;;7.94;61.09;96604.31;6243473;23;20034;-86
2024/01/27 07:36:39;;;;;;;7.90;4.70;;;;;;;8.06;60.89;96607.66;6218462;23;20007;-87
2024/01/27 07:39:04;;;;;;;7.78;4.35;;;;;;;7.94;61.29;96608.66;6218046;23;20012;-87
2024/01/27 07:41:31;;;;;;;5.68;4.40;;;;;;;8.25;60.99;96600.94;6192773;23;20004;-87
2024/01/27 07:43:56;;;;;;;7.72;4.05;;;;;;;8.52;59.88;96588.25;6216664;23;20000;-87
2024/01/27 07:46:22;;;;;;;6.90;4.22;;;;;;;8.49;60.37;96579.91;6217798;23;20015;-87
2024/01/27 07:48:49;;;;;;;5.63;3.90;;;;;;;8.71;60.25;96589.28;6193103;23;20014;-86
2024/01/27 07:51:15;;;;;;;6.80;4.25;;;;;;;8.88;59.70;96587.81;6218157;23;20011;-86
2024/01/27 07:53:41;;;;;;;5.72;4.10;;;;;;;8.92;59.68;96595.19;6193226;23;20012;-87
2024/01/27 07:56:07;;;;;;;7.97;3.80;;;;;;;8.93;59.13;96602.03;6218111;23;20054;-87
2024/01/27 07:58:33;;;;;;;8.02;4.30;;;;;;;8.26;59.83;96598.19;6218266;23;20012;-87
2024/01/27 08:00:59;;;;;;;5.95;4.07;;;;;;;8.64;60.26;96598.53;6193282;23;20023;-87
2024/01/27 08:03:24;;;;;;;6.10;3.97;;;;;;;9.02;58.65;96594.38;6243065;22;20020;-86
2024/01/27 08:05:51;;;;;;;6.32;3.88;;;;;;;9.07;58.76;96598.22;6192618;23;20005;-87
2024/01/27 08:08:16;;;;;;;7.68;3.85;;;;;;;9.78;57.20;96604.94;6218082;23;20050;-87
2024/01/27 08:10:41;;;;;;;5.47;3.53;;;;;;;10.29;56.22;96605.53;6217810;23;20046;-88
2024/01/27 08:13:09;;;;;;;6.38;3.53;;;;;;;10.59;54.86;96601.09;6218333;23;20023;-86
2024/01/27 08:15:35;;;;;;;6.50;3.67;;;;;;;11.13;54.12;96615.06;6193891;23;20008;-87
2024/01/27 08:49:05;;;;;;;4.38;2.88;;;;;;;15.40;41.79;96621.41;6213746;23;20024;-86
2024/01/27 08:51:30;;;;;;;4.72;3.17;;;;;;;15.56;42.08;96618.69;6209469;23;20095;-87
2024/01/27 08:53:59;;;;;;;5.20;3.80;;;;;;;15.77;40.60;96610.19;6225512;23;20027;-86
2024/01/27 08:56:24;;;;;;;4.40;3.50;;;;;;;16.34;40.58;96611.50;6225475;23;20039;-86
2024/01/27 09:04:03;;;;;;;3.90;3.55;;;;;;;16.57;39.84;96597.50;6249750;23;20028;-86
2024/01/27 09:06:28;;;;;;;4.72;3.53;;;;;;;16.79;38.29;96612.34;6220839;23;20074;-86
2024/01/27 09:08:56;;;;;;;5.68;3.75;;;;;;;16.70;40.49;96610.81;6224774;23;20019;-87
2024/01/27 09:16:36;;;;;;;4.35;3.85;;;;;;;15.59;42.15;96600.00;6240379;22;20024;-86
2024/01/27 09:19:02;;;;;;;6.35;3.78;;;;;;;16.35;40.13;96601.81;6192195;23;20024;-86
2024/01/27 09:21:32;;;;;;;4.38;3.40;;;;;;;15.55;41.80;96601.31;6217249;23;20004;-87
2024/01/27 09:23:58;;;;;;;4.78;3.53;;;;;;;15.23;41.84;96618.03;6216902;23;20010;-86
2024/01/27 09:29:01;;;;;;;5.07;3.60;;;;;;;15.17;42.34;96611.72;6237203;22;20020;-86
2024/01/27 09:31:26;;;;;;;4.78;3.65;;;;;;;14.68;43.00;96616.31;6192602;23;20012;-87
2024/01/27 09:33:54;;;;;;;4.03;3.40;;;;;;;15.11;43.56;96616.81;6192797;23;20035;-85
2024/01/27 09:36:20;;;;;;;4.78;3.53;;;;;;;14.69;42.88;96616.16;6217973;23;20051;-86
2024/01/27 09:38:49;;;;;;;4.03;3.63;;;;;;;14.36;43.34;96612.78;6217617;23;20004;-85
2024/01/27 09:52:08;;;;;;;4.10;3.70;;;;;;;15.16;42.31;96615.31;6241196;22;20054;-86
2024/01/27 09:54:34;;;;;;;4.45;3.67;;;;;;;14.61;44.66;96624.03;6217144;23;20020;-86
2024/01/27 09:57:01;;;;;;;4.43;3.78;;;;;;;14.26;45.30;96613.78;6216651;23;20009;-85
2024/01/27 10:01:57;;;;;;;5.15;2.97;;;;;;;14.25;46.63;96606.09;6239935;22;20020;-87
2024/01/27 10:04:25;;;;;;;5.75;3.40;;;;;;;14.48;46.94;96614.88;6216834;23;20012;-87
2024/01/27 10:06:50;;;;;;;6.35;4.82;;;;;;;13.78;46.97;96615.44;6215759;23;20004;-87
2024/01/27 10:09:17;;;;;;;6.35;4.60;;;;;;;13.47;46.96;96617.88;6191786;23;20027;-87
2024/01/27 10:11:46;;;;;;;5.93;4.13;;;;;;;13.22;49.65;96609.13;6216644;23;20058;-86
2024/01/27 10:16:47;;;;;;;6.88;5.50;;;;;;;12.64;50.49;96602.88;6234254;22;20031;-86
2024/01/27 10:19:17;;;;;;;9.15;6.28;;;;;;;12.48;50.63;96606.22;6166850;23;20004;-86
2024/01/27 10:21:44;;;;;;;10.63;6.95;;;;;;;13.00;49.25;96590.44;6216333;23;20020;-86
2024/01/27 10:24:10;;;;;;;10.65;6.13;;;;;;;13.17;49.44;96603.56;6216584;23;20048;-86
2024/01/27 10:31:36;;;;;;;7.18;5.25;;;;;;;12.17;52.30;96585.84;6243549;22;20024;-87
2024/01/27 10:34:09;;;;;;;7.40;5.05;;;;;;;12.28;51.49;96589.97;6218741;23;20030;-86
2024/01/27 10:36:44;;;;;;;5.15;4.30;;;;;;;11.92;53.56;96585.69;6218362;23;20004;-86
2024/01/27 10:39:16;;;;;;;5.63;4.43;;;;;;;11.55;53.71;96581.44;6218535;23;20015;-86
2024/01/27 10:44:14;;;;;;;6.20;3.92;;;;;;;11.84;53.03;96582.16;6243667;22;20027;-86
2024/01/27 10:46:46;;;;;;;5.50;4.72;;;;;;;11.04;54.59;96574.28;6218377;23;20077;-85
2024/01/27 10:49:17;;;;;;;5.47;4.40;;;;;;;11.55;54.83;96570.19;6218709;23;20008;-86
2024/01/27 10:51:53;;;;;;;4.82;4.30;;;;;;;12.11;53.33;96555.97;6218504;23;20000;-87
2024/01/27 10:59:28;;;;;;;4.53;4.07;;;;;;;12.78;50.34;96546.66;6243086;22;20016;-86
2024/01/27 11:01:54;;;;;;;4.93;4.10;;;;;;;12.32;52.11;96544.34;6217877;23;20008;-86
2024/01/27 11:04:21;;;;;;;4.80;3.80;;;;;;;12.62;51.47;96550.84;6218266;23;20035;-86
2024/01/27 11:06:49;;;;;;;5.32;4.13;;;;;;;12.98;50.77;96537.56;6217852;23;20014;-86
2024/01/27 11:09:17;;;;;;;4.10;3.60;;;;;;;13.32;50.68;96535.84;6193397;23;20015;-87
2024/01/27 11:11:45;;;;;;;3.92;3.35;;;;;;;13.60;50.61;96529.31;6188417;23;20024;-87
2024/01/27 11:14:11;;;;;;;4.05;3.35;;;;;;;13.68;50.92;96542.38;6187891;23;20099;-87
2024/01/27 11:16:43;;;;;;;4.18;3.38;;;;;;;14.16;48.56;96533.81;6163363;23;20012;-86
2024/01/27 11:19:12;;;;;;;5.20;3.47;;;;;;;14.08;48.42;96519.78;6164879;23;20008;-86
2024/01/27 11:24:16;;;;;;;4.95;3.88;;;;;;;14.05;47.61;96525.34;6177404;23;20020;-87
2024/01/27 11:26:42;;;;;;;3.50;2.95;;;;;;;14.19;47.92;96518.59;6187644;23;20012;-86
2024/01/27 11:29:19;;;;;;;3.45;3.10;;;;;;;14.43;48.69;96520.34;6187416;23;20009;-87
2024/01/27 11:31:45;;;;;;;4.55;3.03;;;;;;;14.72;48.64;96512.88;6141871;23;20047;-86
2024/01/27 11:34:17;;;;;;;5.00;2.70;;;;;;;14.35;48.01;96516.91;6187825;23;20008;-87
2024/01/27 11:36:41;;;;;;;5.22;2.72;;;;;;;14.59;48.04;96497.72;6239080;22;20027;-87
2024/01/27 11:39:25;;;;;;;2.97;2.67;;;;;;;14.49;47.51;96505.75;6217864;23;20023;-86
2024/01/27 11:41:51;;;;;;;4.60;3.05;;;;;;;14.46;47.62;96493.81;6218096;23;20008;-86
2024/01/27 11:44:20;;;;;;;3.88;2.72;;;;;;;14.25;48.70;96498.81;6217800;23;20015;-86
2024/01/27 11:46:46;;;;;;;3.40;2.63;;;;;;;14.13;47.73;96495.75;6218278;23;20008;-86
2024/01/27 11:56:57;;;;;;;3.92;3.00;;;;;;;14.33;48.42;96482.25;6243704;22;20027;-87
2024/01/27 11:59:22;;;;;;;4.32;2.97;;;;;;;13.81;49.07;96480.94;6192899;23;20012;-86
2024/01/27 12:01:48;;;;;;;3.97;2.72;;;;;;;14.21;47.59;96492.28;6218190;23;20044;-86
2024/01/27 12:04:14;;;;;;;3.88;2.85;;;;;;;13.77;48.14;96477.84;6217729;23;20027;-85
2024/01/27 12:06:41;;;;;;;4.10;2.90;;;;;;;13.23;49.58;96494.03;6217298;23;20074;-86
2024/01/27 12:09:11;;;;;;;5.35;2.75;;;;;;;13.53;49.30;96483.91;6217552;23;20042;-86
2024/01/27 12:11:41;;;;;;;5.13;2.80;;;;;;;13.75;50.38;96499.91;6193286;23;20008;-84
2024/01/27 12:14:06;;;;;;;3.20;2.70;;;;;;;14.24;49.46;96495.38;6217647;23;20067;-86
2024/01/27 12:16:32;;;;;;;3.85;2.50;;;;;;;14.11;46.81;96483.78;6206137;23;20051;-86
2024/01/27 12:19:01;;;;;;;4.68;2.85;;;;;;;13.59;48.24;96480.63;6214283;23;20004;-86
2024/01/27 12:21:29;;;;;;;3.08;2.70;;;;;;;13.74;48.54;96482.56;6217451;23;20000;-86
2024/01/27 12:23:56;;;;;;;3.22;2.80;;;;;;;13.42;50.36;96494.69;6193207;23;20012;-86
2024/01/27 12:28:50;;;;;;;4.82;2.80;;;;;;;14.19;48.88;96489.81;6185946;23;20103;-86
2024/01/27 12:31:19;;;;;;;4.88;2.40;;;;;;;14.68;48.26;96494.06;6158254;23;20091;-86
2024/01/27 12:33:52;;;;;;;3.92;2.80;;;;;;;14.70;48.92;96480.78;6157882;23;20007;-86
2024/01/27 12:36:21;;;;;;;4.35;2.60;;;;;;;14.87;48.58;96484.97;6157544;23;20005;-86
2024/01/27 12:38:54;;;;;;;4.18;2.50;;;;;;;14.51;48.10;96474.16;6157381;23;20068;-86
2024/01/27 12:43:55;;;;;;;3.00;2.70;;;;;;;14.85;47.63;96460.75;6227097;22;20024;-86
2024/01/27 12:46:22;;;;;;;3.42;2.40;;;;;;;15.07;47.17;96469.59;6217623;23;20087;-86
2024/01/27 12:48:48;;;;;;;3.35;2.20;;;;;;;15.07;46.56;96476.66;6192189;23;20024;-87
2024/01/27 12:51:13;;;;;;;4.07;2.20;;;;;;;14.92;47.61;96476.56;6216991;23;20109;-86
2024/01/27 12:53:43;;;;;;;3.00;2.35;;;;;;;14.90;47.29;96463.66;6162052;23;20021;-87
2024/01/27 12:56:13;;;;;;;3.08;2.38;;;;;;;15.00;46.25;96473.91;6158024;23;20009;-86
2024/01/27 12:58:39;;;;;;;3.85;2.30;;;;;;;15.19;45.79;96468.22;6157386;23;20084;-87
2024/01/27 13:01:06;;;;;;;3.30;2.40;;;;;;;15.20;45.46;96450.69;6182415;23;20035;-86
2024/01/27 13:11:07;;;;;;;4.22;2.40;;;;;;;15.21;45.33;96439.19;6248142;22;20047;-87
2024/01/27 13:13:33;;;;;;;3.22;2.42;;;;;;;15.33;44.81;96442.22;6217152;23;20004;-86
2024/01/27 13:15:58;;;;;;;3.95;2.30;;;;;;;15.35;44.40;96448.91;6260065;23;20012;-86
2024/01/27 13:18:24;;;;;;;3.80;2.40;;;;;;;15.29;45.55;96430.44;6223012;23;20038;-86
2024/01/27 13:23:24;;;;;;;4.90;2.55;;;;;;;15.23;45.47;96431.97;6242894;22;20016;-86
2024/01/27 13:25:50;;;;;;;3.15;2.28;;;;;;;15.35;45.47;96432.38;6246579;23;20082;-86
2024/01/27 13:28:15;;;;;;;4.78;2.70;;;;;;;14.84;46.06;96417.19;6222202;23;20027;-85
2024/01/27 13:30:41;;;;;;;3.83;2.42;;;;;;;15.11;46.43;96421.09;6192313;23;20012;-86
2024/01/27 13:33:08;;;;;;;5.43;2.50;;;;;;;15.19;45.13;96409.72;6172191;23;20028;-86
2024/01/27 13:35:34;;;;;;;3.90;2.80;;;;;;;14.92;45.68;96421.56;6158089;23;20099;-86
2024/01/27 13:37:59;;;;;;;3.35;2.40;;;;;;;15.16;46.28;96426.63;6157870;23;20096;-86
2024/01/27 13:40:26;;;;;;;5.57;2.40;;;;;;;15.50;45.62;96411.41;6158129;23;20005;-87
2024/01/27 13:50:37;;;;;;;3.63;2.47;;;;;;;15.33;46.60;96414.19;6236663;22;20024;-86
2024/01/27 13:53:05;;;;;;;4.18;2.58;;;;;;;15.56;46.19;96422.00;6216446;23;20015;-87
2024/01/27 13:55:31;;;;;;;3.13;2.50;;;;;;;15.55;45.60;96415.13;6217746;23;20058;-87
2024/01/27 13:57:56;;;;;;;3.08;2.47;;;;;;;15.60;45.68;96401.47;6217443;23;20012;-86
2024/01/27 14:00:24;;;;;;;3.95;2.65;;;;;;;15.56;45.58;96413.31;6216987;23;20000;-86
2024/01/27 14:02:49;;;;;;;3.10;2.40;;;;;;;15.73;44.68;96413.97;6216855;23;20000;-86
2024/01/27 14:05:15;;;;;;;3.78;2.40;;;;;;;15.52;45.28;96425.19;6216334;23;20092;-86
2024/01/27 14:10:06;;;;;;;3.95;2.60;;;;;;;15.20;45.83;96422.66;6236703;22;20016;-86
2024/01/27 14:12:33;;;;;;;3.78;2.55;;;;;;;14.87;47.33;96424.72;6166666;23;20091;-86
2024/01/27 14:15:09;;;;;;;4.07;2.95;;;;;;;14.81;47.04;96428.00;6216763;23;20004;-85
2024/01/27 14:17:38;;;;;;;3.80;3.40;;;;;;;15.10;46.23;96421.25;6192006;23;20091;-85
2024/01/27 14:25:06;;;;;;;6.53;4.53;;;;;;;14.18;48.33;96404.44;6238708;22;20059;-86
2024/01/27 14:27:31;;;;;;;7.30;4.88;;;;;;;14.44;47.98;96391.06;6215828;23;20015;-87
2024/01/27 14:29:57;;;;;;;4.65;3.30;;;;;;;14.14;48.69;96395.31;6216829;23;20016;-86
2024/01/27 14:32:22;;;;;;;3.55;2.90;;;;;;;13.95;49.06;96407.00;6192002;23;20035;-86
2024/01/27 14:34:49;;;;;;;4.43;3.50;;;;;;;13.68;49.15;96403.00;6216829;23;20037;-86
2024/01/27 14:42:19;;;;;;;3.00;2.70;;;;;;;14.22;47.71;96410.16;6239733;22;20016;-85
2024/01/27 14:44:49;;;;;;;5.40;3.03;;;;;;;14.26;47.82;96395.78;6167574;23;20091;-87
2024/01/27 14:47:15;;;;;;;5.20;2.70;;;;;;;14.31;47.53;96408.34;6216745;23;20004;-86
2024/01/27 14:52:06;;;;;;;4.25;2.90;;;;;;;14.36;47.64;96398.97;6235267;22;20047;-85
2024/01/27 14:54:34;;;;;;;5.68;3.42;;;;;;;14.10;48.51;96409.72;6241600;23;20000;-86
2024/01/27 14:57:00;;;;;;;3.53;3.00;;;;;;;13.94;48.78;96407.19;6216601;23;20011;-85
2024/01/27 14:59:25;;;;;;;4.65;3.47;;;;;;;13.90;48.61;96404.09;6216232;23;20079;-86
2024/01/27 15:04:25;;;;;;;4.30;3.25;;;;;;;13.81;48.76;96402.50;6181623;23;20062;-86
2024/01/27 15:06:51;;;;;;;3.55;2.83;;;;;;;13.85;48.25;96396.75;6134215;23;20036;-85
2024/01/27 15:09:17;;;;;;;4.00;3.40;;;;;;;13.83;48.88;96403.13;6186451;23;20005;-86